Time;durP1;ratioP1;P1;durP2;ratioP2;P2;SDS_P1;SDS_P2;PMS_P1;PMS_P2;Temp;Humidity;BMP_temperature;BMP_pressure;BME280_temperature;BME280_humidity;BME280_pressure;Samples;Min_cycle;Max_cycle;Signal;HPM_P1;HPM_P2
2021/10/20 00:01:59;;;;;;;39.17;15.10;;;;;;;;;;5050044;28;20071;-60
2021/10/20 00:04:29;;;;;;;30.02;14.07;;;;;;;;;;5049101;28;20115;-60
2021/10/20 00:07:02;;;;;;;29.70;12.88;;;;;;;;;;5062724;28;20032;-60
2021/10/20 00:09:30;;;;;;;30.55;14.30;;;;;;;;;;5065091;28;20679;-60
2021/10/20 00:11:57;;;;;;;36.10;14.77;;;;;;;;;;5049500;28;20082;-60
2021/10/20 00:14:28;;;;;;;32.78;13.30;;;;;;;;;;5046658;28;20059;-60
2021/10/20 00:16:58;;;;;;;34.10;13.93;;;;;;;;;;5046693;28;20644;-61
2021/10/20 00:19:26;;;;;;;33.42;13.68;;;;;;;;;;5047810;28;20127;-60
2021/10/20 00:21:57;;;;;;;34.88;14.43;;;;;;;;;;5044689;28;20598;-59
2021/10/20 00:24:25;;;;;;;31.80;15.70;;;;;;;;;;5049151;28;20151;-60
2021/10/20 00:26:53;;;;;;;31.65;14.60;;;;;;;;;;5046763;28;20039;-59
2021/10/20 00:29:23;;;;;;;27.00;13.30;;;;;;;;;;5024891;28;20037;-60
2021/10/20 00:31:53;;;;;;;34.15;14.35;;;;;;;;;;5047706;28;20673;-59
2021/10/20 00:34:19;;;;;;;25.90;12.95;;;;;;;;;;5030742;28;20099;-59
2021/10/20 00:36:44;;;;;;;30.10;13.90;;;;;;;;;;5023197;28;20973;-59
2021/10/20 00:39:10;;;;;;;24.05;11.57;;;;;;;;;;5049987;28;20040;-60
2021/10/20 00:41:40;;;;;;;27.85;12.75;;;;;;;;;;5047611;28;21983;-59
2021/10/20 00:44:05;;;;;;;29.88;13.15;;;;;;;;;;5044041;28;20036;-59
2021/10/20 00:46:31;;;;;;;25.40;12.75;;;;;;;;;;5046951;28;20074;-59
2021/10/20 00:48:59;;;;;;;30.30;11.80;;;;;;;;;;5043646;28;20166;-60
2021/10/20 00:51:27;;;;;;;26.45;12.55;;;;;;;;;;5049460;28;20028;-59
2021/10/20 00:53:57;;;;;;;26.48;12.82;;;;;;;;;;5044168;28;20898;-60
2021/10/20 00:56:26;;;;;;;28.08;13.60;;;;;;;;;;5045038;28;20770;-60
2021/10/20 00:58:52;;;;;;;25.85;12.20;;;;;;;;;;5044448;28;20137;-61
2021/10/20 01:01:20;;;;;;;27.58;13.00;;;;;;;;;;5058536;28;20033;-60
2021/10/20 01:03:45;;;;;;;28.13;12.88;;;;;;;;;;5062318;28;20929;-60
2021/10/20 01:06:11;;;;;;;24.42;11.35;;;;;;;;;;5061024;28;20044;-59
2021/10/20 01:08:37;;;;;;;24.02;11.95;;;;;;;;;;5046127;28;20107;-60
2021/10/20 01:11:05;;;;;;;33.05;12.52;;;;;;;;;;5045792;28;20498;-60
2021/10/20 01:13:31;;;;;;;22.88;12.43;;;;;;;;;;5044324;28;20032;-60
2021/10/20 01:16:02;;;;;;;28.08;12.40;;;;;;;;;;5046162;28;20111;-60
2021/10/20 01:18:29;;;;;;;28.20;11.18;;;;;;;;;;5045542;28;20032;-60
2021/10/20 01:20:58;;;;;;;29.13;12.18;;;;;;;;;;5046441;28;20112;-60
2021/10/20 01:23:23;;;;;;;28.23;11.55;;;;;;;;;;5058363;28;20032;-60
2021/10/20 01:25:49;;;;;;;28.17;11.98;;;;;;;;;;5047821;28;20036;-60
2021/10/20 01:28:15;;;;;;;22.48;11.02;;;;;;;;;;5046156;28;21008;-59
2021/10/20 01:30:43;;;;;;;20.63;9.93;;;;;;;;;;5049413;28;20151;-59
2021/10/20 01:33:09;;;;;;;20.83;11.15;;;;;;;;;;5045899;28;20051;-60
2021/10/20 01:35:37;;;;;;;22.85;10.45;;;;;;;;;;5048855;28;20414;-60
2021/10/20 01:38:08;;;;;;;18.85;9.48;;;;;;;;;;5043825;28;20029;-60
2021/10/20 01:40:33;;;;;;;17.40;10.07;;;;;;;;;;5029725;28;20047;-61
2021/10/20 01:42:58;;;;;;;22.58;10.80;;;;;;;;;;5042037;28;20354;-60
2021/10/20 01:45:26;;;;;;;23.90;10.32;;;;;;;;;;5043954;28;21191;-61
2021/10/20 01:47:52;;;;;;;16.73;10.13;;;;;;;;;;5045278;28;20043;-60
2021/10/20 01:50:20;;;;;;;21.35;9.85;;;;;;;;;;5043938;28;20024;-61
2021/10/20 01:52:50;;;;;;;15.95;9.60;;;;;;;;;;5046959;28;20051;-60
2021/10/20 01:55:16;;;;;;;25.10;10.27;;;;;;;;;;5045332;28;20171;-61
2021/10/20 01:57:43;;;;;;;19.67;10.05;;;;;;;;;;5044931;28;20067;-61
2021/10/20 02:00:12;;;;;;;18.45;9.55;;;;;;;;;;5046097;28;20455;-59
2021/10/20 02:02:37;;;;;;;16.10;8.95;;;;;;;;;;5042827;28;20048;-60
2021/10/20 02:05:04;;;;;;;17.77;9.23;;;;;;;;;;5046560;28;20020;-60
2021/10/20 02:07:35;;;;;;;19.92;9.70;;;;;;;;;;5045636;28;20131;-61
2021/10/20 02:10:03;;;;;;;18.30;8.77;;;;;;;;;;5047447;28;20124;-60
2021/10/20 02:12:28;;;;;;;24.40;9.77;;;;;;;;;;5042476;28;20120;-61
2021/10/20 02:14:53;;;;;;;17.70;8.77;;;;;;;;;;5028680;28;20037;-61
2021/10/20 02:17:19;;;;;;;14.80;9.38;;;;;;;;;;5050773;28;20029;-61
2021/10/20 02:19:45;;;;;;;17.52;9.02;;;;;;;;;;5062672;28;20569;-61
2021/10/20 02:22:13;;;;;;;14.95;8.10;;;;;;;;;;5063130;28;20051;-61
2021/10/20 02:24:39;;;;;;;19.13;8.30;;;;;;;;;;5062912;28;20355;-60
2021/10/20 02:27:09;;;;;;;16.27;8.85;;;;;;;;;;5063943;28;20035;-60
2021/10/20 02:29:34;;;;;;;15.48;8.35;;;;;;;;;;5062711;28;20032;-60
2021/10/20 02:32:00;;;;;;;18.00;9.23;;;;;;;;;;5062061;28;20079;-60
2021/10/20 02:34:28;;;;;;;16.10;8.45;;;;;;;;;;5065151;28;20025;-60
2021/10/20 02:36:56;;;;;;;15.38;8.32;;;;;;;;;;5063637;28;20457;-62
2021/10/20 02:39:21;;;;;;;16.40;8.85;;;;;;;;;;5061603;28;20532;-60
2021/10/20 02:41:47;;;;;;;17.13;8.35;;;;;;;;;;5063861;28;20044;-61
2021/10/20 02:44:13;;;;;;;16.90;8.57;;;;;;;;;;5063560;28;20060;-60
2021/10/20 02:46:43;;;;;;;16.75;8.70;;;;;;;;;;5050340;28;20048;-61
2021/10/20 02:49:13;;;;;;;14.45;8.15;;;;;;;;;;5065588;28;20136;-61
2021/10/20 02:51:38;;;;;;;15.98;7.95;;;;;;;;;;5065720;28;20040;-61
2021/10/20 02:54:04;;;;;;;16.77;7.95;;;;;;;;;;5050393;28;20123;-60
2021/10/20 02:56:32;;;;;;;15.90;7.80;;;;;;;;;;5066593;28;20032;-60
2021/10/20 02:58:57;;;;;;;12.07;7.38;;;;;;;;;;5064658;28;20173;-61
2021/10/20 03:01:23;;;;;;;12.80;8.27;;;;;;;;;;5067349;28;20112;-61
2021/10/20 03:03:51;;;;;;;20.80;8.10;;;;;;;;;;5065258;28;21235;-60
2021/10/20 03:06:19;;;;;;;17.48;8.10;;;;;;;;;;5037375;28;20032;-61
2021/10/20 03:08:48;;;;;;;13.52;8.35;;;;;;;;;;5066146;28;20210;-61
2021/10/20 03:11:16;;;;;;;16.35;8.07;;;;;;;;;;5065486;28;20024;-61
2021/10/20 03:13:42;;;;;;;14.25;7.72;;;;;;;;;;5084340;28;20391;-59
2021/10/20 03:16:09;;;;;;;22.30;7.63;;;;;;;;;;5052914;28;20028;-60
2021/10/20 03:18:37;;;;;;;16.67;8.32;;;;;;;;;;5068169;28;20029;-59
2021/10/20 03:21:10;;;;;;;15.75;8.43;;;;;;;;;;5049922;28;20352;-61
2021/10/20 03:23:35;;;;;;;15.05;8.45;;;;;;;;;;5069151;28;20040;-60
2021/10/20 03:26:03;;;;;;;15.90;7.75;;;;;;;;;;5065132;28;20032;-61
2021/10/20 03:28:34;;;;;;;17.17;7.97;;;;;;;;;;5067470;28;20028;-63
2021/10/20 03:30:59;;;;;;;14.35;8.02;;;;;;;;;;5066812;28;20056;-60
2021/10/20 03:33:27;;;;;;;19.58;9.00;;;;;;;;;;5061330;28;20029;-61
2021/10/20 03:35:55;;;;;;;14.48;8.10;;;;;;;;;;5067617;28;20044;-60
2021/10/20 03:38:26;;;;;;;17.92;8.60;;;;;;;;;;5065540;28;20144;-60
2021/10/20 03:40:51;;;;;;;17.25;8.80;;;;;;;;;;5068676;28;20066;-61
2021/10/20 03:43:21;;;;;;;15.88;8.60;;;;;;;;;;5065601;28;20028;-60
2021/10/20 03:45:47;;;;;;;17.40;8.73;;;;;;;;;;5069720;28;20032;-61
2021/10/20 03:48:13;;;;;;;24.40;9.45;;;;;;;;;;5062616;28;20028;-61
2021/10/20 03:50:40;;;;;;;20.80;9.70;;;;;;;;;;5065515;28;20048;-61
2021/10/20 03:53:09;;;;;;;18.45;9.10;;;;;;;;;;5067441;28;20028;-60
2021/10/20 03:58:41;;;;;;;22.17;9.52;;;;;;;;;;5065424;28;20484;-60
2021/10/20 04:01:07;;;;;;;18.33;9.30;;;;;;;;;;5048898;28;20115;-61
2021/10/20 04:03:36;;;;;;;20.02;9.77;;;;;;;;;;5066436;28;20040;-60
2021/10/20 04:06:04;;;;;;;18.67;9.38;;;;;;;;;;5067752;28;20577;-60
2021/10/20 04:08:31;;;;;;;20.80;10.20;;;;;;;;;;5066390;28;20040;-60
2021/10/20 04:11:02;;;;;;;22.48;9.63;;;;;;;;;;5079895;28;20309;-61
2021/10/20 04:13:28;;;;;;;22.48;9.73;;;;;;;;;;5065741;28;21197;-61
2021/10/20 04:15:53;;;;;;;19.42;9.25;;;;;;;;;;5050012;28;20016;-61
2021/10/20 04:18:21;;;;;;;23.75;9.77;;;;;;;;;;5069356;28;20033;-61
2021/10/20 04:20:47;;;;;;;24.23;9.68;;;;;;;;;;5068147;28;20140;-61
2021/10/20 04:23:12;;;;;;;17.17;9.07;;;;;;;;;;5064725;28;20059;-61
2021/10/20 04:25:40;;;;;;;19.35;9.00;;;;;;;;;;5063449;28;20066;-60
2021/10/20 04:28:09;;;;;;;17.75;9.68;;;;;;;;;;5067296;28;20502;-61
2021/10/20 04:30:37;;;;;;;20.70;9.77;;;;;;;;;;5067138;28;20074;-60
2021/10/20 04:33:02;;;;;;;19.08;9.18;;;;;;;;;;5066222;28;20135;-61
2021/10/20 04:35:31;;;;;;;18.58;9.82;;;;;;;;;;5066845;28;20127;-61
2021/10/20 04:41:33;;;;;;;17.63;9.35;;;;;;;;;;5067988;28;20802;-60
2021/10/20 04:43:59;;;;;;;18.60;10.13;;;;;;;;;;5044930;28;20116;-60
2021/10/20 04:46:27;;;;;;;18.77;9.13;;;;;;;;;;5066378;28;20116;-59
2021/10/20 04:48:56;;;;;;;18.15;9.65;;;;;;;;;;5064301;28;20115;-63
2021/10/20 04:51:24;;;;;;;19.55;8.75;;;;;;;;;;5064832;28;20029;-62
2021/10/20 04:53:52;;;;;;;16.95;9.48;;;;;;;;;;5062344;28;20032;-60
2021/10/20 04:56:17;;;;;;;19.05;8.98;;;;;;;;;;5060794;28;20020;-60
2021/10/20 04:58:45;;;;;;;25.45;9.38;;;;;;;;;;5067830;28;20056;-61
2021/10/20 05:01:15;;;;;;;24.88;8.68;;;;;;;;;;5048347;28;20032;-62
2021/10/20 05:03:45;;;;;;;24.35;8.63;;;;;;;;;;5064585;28;20029;-61
2021/10/20 05:06:13;;;;;;;16.25;8.23;;;;;;;;;;5066273;28;20111;-61
2021/10/20 05:08:41;;;;;;;16.60;9.70;;;;;;;;;;5046688;28;20076;-61
2021/10/20 05:11:09;;;;;;;22.33;9.60;;;;;;;;;;5062227;28;20024;-62
2021/10/20 05:13:37;;;;;;;16.75;8.73;;;;;;;;;;5047914;28;20701;-61
2021/10/20 05:16:05;;;;;;;19.42;8.50;;;;;;;;;;5065177;28;20025;-61
2021/10/20 05:18:33;;;;;;;26.27;10.30;;;;;;;;;;5065954;28;20040;-60
2021/10/20 05:21:06;;;;;;;17.30;8.30;;;;;;;;;;5065856;28;20024;-61
2021/10/20 05:23:31;;;;;;;15.45;8.45;;;;;;;;;;5067173;28;20115;-60
2021/10/20 05:26:02;;;;;;;26.80;10.35;;;;;;;;;;5065478;28;20107;-60
2021/10/20 05:28:30;;;;;;;20.65;9.27;;;;;;;;;;5064980;28;20040;-61
2021/10/20 05:30:58;;;;;;;21.08;9.30;;;;;;;;;;5049032;28;20040;-60
2021/10/20 05:33:25;;;;;;;20.48;9.18;;;;;;;;;;5067663;28;20033;-60
2021/10/20 05:35:54;;;;;;;23.25;9.27;;;;;;;;;;5058440;28;20033;-60
2021/10/20 05:38:22;;;;;;;20.25;9.95;;;;;;;;;;5064939;28;20036;-62
2021/10/20 05:40:52;;;;;;;24.33;10.82;;;;;;;;;;5065913;28;20051;-60
2021/10/20 05:43:22;;;;;;;23.90;10.93;;;;;;;;;;5050051;28;20031;-60
2021/10/20 05:45:50;;;;;;;24.88;11.57;;;;;;;;;;5067490;28;20029;-60
2021/10/20 05:48:22;;;;;;;20.60;11.20;;;;;;;;;;5048444;28;20029;-61
2021/10/20 05:50:48;;;;;;;28.20;12.52;;;;;;;;;;5069582;28;20478;-61
2021/10/20 05:53:14;;;;;;;24.48;12.00;;;;;;;;;;5063379;28;20032;-61
2021/10/20 05:55:44;;;;;;;24.02;11.90;;;;;;;;;;5059931;28;20029;-62
2021/10/20 05:58:12;;;;;;;26.90;11.85;;;;;;;;;;5075452;28;20032;-62
2021/10/20 06:00:39;;;;;;;21.25;11.23;;;;;;;;;;5063549;28;20036;-61
2021/10/20 06:03:12;;;;;;;22.60;11.98;;;;;;;;;;5064878;28;20125;-62
2021/10/20 06:05:38;;;;;;;19.08;10.90;;;;;;;;;;5062899;28;20090;-61
2021/10/20 06:11:38;;;;;;;22.58;11.40;;;;;;;;;;5065440;28;20023;-60
2021/10/20 06:14:04;;;;;;;21.50;11.02;;;;;;;;;;5061420;28;20037;-61
2021/10/20 06:16:32;;;;;;;20.40;11.13;;;;;;;;;;5064625;28;20111;-61
2021/10/20 06:18:58;;;;;;;21.60;11.52;;;;;;;;;;5045404;28;20047;-62
2021/10/20 06:21:26;;;;;;;21.85;11.93;;;;;;;;;;5048109;28;20029;-62
2021/10/20 06:23:52;;;;;;;28.73;10.98;;;;;;;;;;5046133;28;20158;-62
2021/10/20 06:26:17;;;;;;;20.77;11.02;;;;;;;;;;5042449;28;20734;-63
2021/10/20 06:28:43;;;;;;;20.90;10.32;;;;;;;;;;5043765;28;20107;-61
2021/10/20 06:31:08;;;;;;;21.05;10.75;;;;;;;;;;5044289;28;20115;-60
2021/10/20 06:33:36;;;;;;;20.25;11.00;;;;;;;;;;5031990;28;20044;-61
2021/10/20 06:36:17;;;;;;;22.27;12.20;;;;;;;;;;5012000;28;20064;-61
2021/10/20 06:38:48;;;;;;;20.90;11.15;;;;;;;;;;5039393;28;20159;-61
2021/10/20 06:41:13;;;;;;;26.50;11.18;;;;;;;;;;5045238;28;20041;-61
2021/10/20 06:43:39;;;;;;;21.73;11.65;;;;;;;;;;5058261;28;20121;-62
2021/10/20 06:46:07;;;;;;;26.83;10.38;;;;;;;;;;5046263;28;20028;-63
2021/10/20 06:48:33;;;;;;;24.15;12.23;;;;;;;;;;5044579;28;20032;-64
2021/10/20 06:50:58;;;;;;;19.63;11.15;;;;;;;;;;5047332;28;20095;-62
2021/10/20 06:53:24;;;;;;;20.05;11.38;;;;;;;;;;5047011;28;21000;-61
2021/10/20 06:55:51;;;;;;;19.08;9.98;;;;;;;;;;5043553;28;20032;-62
2021/10/20 06:58:19;;;;;;;22.02;11.02;;;;;;;;;;5028495;28;20032;-60
2021/10/20 07:00:45;;;;;;;24.80;11.15;;;;;;;;;;5043713;28;20091;-62
2021/10/20 07:03:13;;;;;;;19.92;11.13;;;;;;;;;;5043811;28;20175;-61
2021/10/20 07:05:38;;;;;;;19.25;10.23;;;;;;;;;;5029752;28;20420;-61
2021/10/20 07:08:06;;;;;;;19.23;10.15;;;;;;;;;;5042272;28;20489;-62
2021/10/20 07:10:37;;;;;;;20.85;10.43;;;;;;;;;;5043642;28;20121;-61
2021/10/20 07:13:03;;;;;;;20.45;10.15;;;;;;;;;;5040339;28;20123;-62
2021/10/20 07:15:29;;;;;;;18.55;10.70;;;;;;;;;;5045779;28;20048;-63
2021/10/20 07:17:59;;;;;;;23.65;10.52;;;;;;;;;;5043478;28;20388;-62
2021/10/20 07:20:27;;;;;;;20.85;11.18;;;;;;;;;;5042432;28;20047;-64
2021/10/20 07:22:56;;;;;;;24.95;11.45;;;;;;;;;;5043862;28;20185;-62
2021/10/20 07:25:27;;;;;;;24.48;11.10;;;;;;;;;;5047846;28;20047;-61
2021/10/20 07:27:58;;;;;;;19.75;10.57;;;;;;;;;;5045089;28;20470;-62
2021/10/20 07:30:25;;;;;;;20.10;10.57;;;;;;;;;;5048340;28;20221;-60
2021/10/20 07:32:53;;;;;;;25.30;11.82;;;;;;;;;;5045937;28;20040;-61
2021/10/20 07:35:24;;;;;;;19.70;9.48;;;;;;;;;;5049841;28;20462;-62
2021/10/20 07:37:50;;;;;;;25.55;10.93;;;;;;;;;;5047464;28;20048;-61
2021/10/20 07:40:17;;;;;;;25.33;10.30;;;;;;;;;;5049375;28;20036;-60
2021/10/20 07:42:48;;;;;;;26.55;10.73;;;;;;;;;;5048457;28;20040;-62
2021/10/20 07:45:18;;;;;;;19.67;9.70;;;;;;;;;;5046620;28;20025;-64
2021/10/20 07:47:47;;;;;;;23.88;9.18;;;;;;;;;;5065025;28;20562;-61
2021/10/20 07:50:16;;;;;;;18.52;8.82;;;;;;;;;;5065846;28;20044;-61
2021/10/20 07:52:47;;;;;;;23.02;10.05;;;;;;;;;;5049001;28;20038;-60
2021/10/20 07:55:16;;;;;;;20.73;9.65;;;;;;;;;;5048633;28;20040;-62
2021/10/20 07:58:06;;;;;;;22.60;10.00;;;;;;;;;;5030398;28;20059;-60
2021/10/20 08:00:32;;;;;;;21.40;10.30;;;;;;;;;;5050288;28;20028;-60
2021/10/20 08:03:02;;;;;;;24.45;11.32;;;;;;;;;;5046958;28;20031;-59
2021/10/20 08:05:27;;;;;;;27.77;11.65;;;;;;;;;;5049253;28;22296;-59
2021/10/20 08:07:59;;;;;;;25.98;11.30;;;;;;;;;;5048480;28;20068;-59
2021/10/20 08:10:26;;;;;;;22.77;11.65;;;;;;;;;;5047920;28;20032;-59
2021/10/20 08:12:52;;;;;;;26.38;11.90;;;;;;;;;;5048644;28;20063;-60
2021/10/20 08:15:18;;;;;;;25.15;12.48;;;;;;;;;;5029136;28;20154;-59
2021/10/20 08:21:18;;;;;;;22.45;11.77;;;;;;;;;;5049762;28;20844;-59
2021/10/20 08:24:11;;;;;;;26.67;11.27;;;;;;;;;;5050735;28;20052;-59
2021/10/20 08:26:37;;;;;;;24.08;10.02;;;;;;;;;;5046441;28;20102;-62
2021/10/20 08:29:08;;;;;;;23.48;9.13;;;;;;;;;;5048121;28;20946;-62
2021/10/20 08:31:36;;;;;;;15.80;9.10;;;;;;;;;;5049322;28;20044;-61
2021/10/20 08:34:02;;;;;;;19.30;8.57;;;;;;;;;;5049130;28;20147;-62
2021/10/20 08:36:27;;;;;;;20.48;7.63;;;;;;;;;;5030876;28;20035;-61
2021/10/20 08:38:59;;;;;;;17.50;8.40;;;;;;;;;;5046908;28;20166;-61
2021/10/20 08:41:24;;;;;;;18.55;8.88;;;;;;;;;;5046647;28;20036;-60
2021/10/20 08:43:54;;;;;;;17.05;8.02;;;;;;;;;;5047797;28;20073;-61
2021/10/20 08:46:25;;;;;;;14.52;7.53;;;;;;;;;;5049534;28;20037;-62
2021/10/20 08:48:56;;;;;;;17.02;8.63;;;;;;;;;;5046010;28;20658;-61
2021/10/20 08:51:25;;;;;;;19.42;8.75;;;;;;;;;;5038966;28;20078;-60
2021/10/20 08:53:56;;;;;;;16.58;8.32;;;;;;;;;;5048037;28;20113;-61
2021/10/20 08:56:23;;;;;;;12.75;7.45;;;;;;;;;;5048773;28;20043;-60
2021/10/20 08:58:49;;;;;;;11.07;6.80;;;;;;;;;;5048713;28;20024;-62
2021/10/20 09:01:18;;;;;;;12.15;7.40;;;;;;;;;;5029791;28;20553;-62
2021/10/20 09:03:47;;;;;;;11.80;7.40;;;;;;;;;;5027353;28;20936;-60
2021/10/20 09:06:15;;;;;;;12.38;6.55;;;;;;;;;;5049459;28;20024;-63
2021/10/20 09:08:41;;;;;;;10.77;6.32;;;;;;;;;;5037064;28;20041;-60
2021/10/20 09:14:00;;;;;;;17.38;5.63;;;;;;;;;;5045112;28;20659;-60
2021/10/20 09:16:28;;;;;;;9.15;5.68;;;;;;;;;;5062236;28;20043;-61
2021/10/20 09:18:58;;;;;;;12.93;5.72;;;;;;;;;;5044046;28;20041;-60
2021/10/20 09:21:23;;;;;;;15.52;6.10;;;;;;;;;;5063710;28;20023;-63
2021/10/20 09:23:49;;;;;;;10.23;5.72;;;;;;;;;;5045503;28;20493;-61
2021/10/20 09:26:15;;;;;;;12.25;5.85;;;;;;;;;;5046694;28;20667;-63
2021/10/20 09:28:40;;;;;;;13.73;5.57;;;;;;;;;;5046980;28;20128;-61
2021/10/20 09:31:06;;;;;;;10.98;6.40;;;;;;;;;;5063847;28;20095;-62
2021/10/20 09:34:03;;;;;;;9.75;5.40;;;;;;;;;;5044856;28;20032;-61
2021/10/20 09:36:32;;;;;;;11.50;5.90;;;;;;;;;;5030623;28;20117;-61
2021/10/20 09:42:48;;;;;;;11.23;6.30;;;;;;;;;;5048101;28;20593;-61
2021/10/20 09:45:20;;;;;;;8.77;6.20;;;;;;;;;;5046546;28;20059;-62
2021/10/20 09:47:46;;;;;;;10.25;5.85;;;;;;;;;;5044424;28;20036;-60
2021/10/20 09:50:12;;;;;;;9.10;6.00;;;;;;;;;;5042387;28;20036;-61
2021/10/20 09:52:55;;;;;;;8.57;5.63;;;;;;;;;;5045347;28;20069;-60
2021/10/20 09:55:30;;;;;;;24.38;7.30;;;;;;;;;;5046100;28;20044;-62
2021/10/20 09:58:04;;;;;;;11.32;6.13;;;;;;;;;;5046695;28;20505;-61
2021/10/20 10:00:33;;;;;;;10.45;5.90;;;;;;;;;;5026036;28;20047;-61
2021/10/20 10:03:01;;;;;;;8.77;5.65;;;;;;;;;;5020199;28;20060;-61
2021/10/20 10:05:29;;;;;;;12.68;6.18;;;;;;;;;;5045899;28;20563;-61
2021/10/20 10:07:54;;;;;;;9.32;5.72;;;;;;;;;;5044206;28;20091;-60
2021/10/20 10:10:20;;;;;;;8.13;5.97;;;;;;;;;;5045546;28;20037;-62
2021/10/20 10:12:46;;;;;;;7.28;5.45;;;;;;;;;;5048164;28;20032;-61
2021/10/20 10:15:13;;;;;;;10.13;5.63;;;;;;;;;;5061264;28;20056;-62
2021/10/20 10:17:42;;;;;;;9.57;5.70;;;;;;;;;;5060774;28;20017;-61
2021/10/20 10:23:24;;;;;;;;;;;;;;;;;;5045778;28;20091;-62
2021/10/20 10:25:57;;;;;;;15.43;5.80;;;;;;;;;;5046053;28;19923;-63
2021/10/20 10:28:24;;;;;;;9.05;5.90;;;;;;;;;;5046847;28;20048;-61
2021/10/20 10:31:24;;;;;;;9.77;5.82;;;;;;;;;;5046942;28;20383;-61
2021/10/20 10:34:29;;;;;;;13.48;7.30;;;;;;;;;;5042516;28;22067;-61
2021/10/20 10:40:17;;;;;;;9.80;6.18;;;;;;;;;;5047374;28;20040;-61
2021/10/20 10:46:20;;;;;;;8.82;6.25;;;;;;;;;;5047467;28;20494;-61
2021/10/20 10:48:45;;;;;;;10.77;6.15;;;;;;;;;;5061312;28;20596;-63
2021/10/20 10:51:14;;;;;;;10.82;5.65;;;;;;;;;;5045027;28;20032;-59
2021/10/20 10:53:41;;;;;;;8.20;5.35;;;;;;;;;;5037476;28;20119;-62
2021/10/20 10:56:06;;;;;;;12.73;6.15;;;;;;;;;;5046910;28;20090;-60
2021/10/20 10:58:51;;;;;;;12.65;6.45;;;;;;;;;;5026569;28;21310;-59
2021/10/20 11:01:35;;;;;;;12.27;6.95;;;;;;;;;;5047841;28;20444;-59
2021/10/20 11:04:19;;;;;;;15.02;7.43;;;;;;;;;;5048070;28;20033;-57
2021/10/20 11:06:46;;;;;;;11.48;6.80;;;;;;;;;;5051828;28;20028;-59
2021/10/20 11:09:17;;;;;;;12.80;6.60;;;;;;;;;;5046314;28;22040;-58
2021/10/20 11:11:50;;;;;;;17.15;7.40;;;;;;;;;;5042114;28;20112;-58
2021/10/20 11:14:19;;;;;;;18.08;7.40;;;;;;;;;;5041743;28;20584;-56
2021/10/20 11:16:48;;;;;;;13.02;7.97;;;;;;;;;;5031528;28;20029;-59
2021/10/20 11:19:16;;;;;;;11.93;7.82;;;;;;;;;;5062086;28;20032;-57
2021/10/20 11:21:46;;;;;;;14.90;8.90;;;;;;;;;;5048202;28;20316;-57
2021/10/20 11:24:20;;;;;;;15.35;9.40;;;;;;;;;;5049043;28;20032;-56
2021/10/20 11:26:47;;;;;;;19.63;10.80;;;;;;;;;;5049451;28;20543;-56
2021/10/20 11:29:13;;;;;;;15.15;10.02;;;;;;;;;;5048988;28;20028;-56
2021/10/20 11:31:49;;;;;;;18.02;11.60;;;;;;;;;;5047808;28;22051;-58
2021/10/20 11:34:15;;;;;;;16.08;9.90;;;;;;;;;;5044235;28;20033;-57
2021/10/20 11:36:42;;;;;;;17.13;10.70;;;;;;;;;;5049296;28;20043;-58
2021/10/20 11:39:08;;;;;;;20.50;10.30;;;;;;;;;;5047939;28;20060;-56
2021/10/20 11:41:37;;;;;;;20.92;10.98;;;;;;;;;;5050077;28;20059;-58
2021/10/20 11:44:03;;;;;;;21.20;11.07;;;;;;;;;;5049914;28;20036;-57
2021/10/20 11:46:33;;;;;;;20.08;10.75;;;;;;;;;;5050253;28;20032;-58
2021/10/20 11:49:00;;;;;;;20.75;10.43;;;;;;;;;;5064404;28;20020;-58
2021/10/20 11:51:25;;;;;;;16.60;9.20;;;;;;;;;;5048541;28;20529;-59
2021/10/20 11:57:29;;;;;;;19.50;9.55;;;;;;;;;;5050390;28;20055;-59
2021/10/20 11:59:56;;;;;;;14.80;8.05;;;;;;;;;;5047644;28;20040;-60
2021/10/20 12:02:21;;;;;;;16.13;6.78;;;;;;;;;;5049523;28;20028;-58
2021/10/20 12:04:48;;;;;;;14.35;6.63;;;;;;;;;;5047448;28;20036;-60
2021/10/20 12:07:16;;;;;;;13.63;6.13;;;;;;;;;;5049712;28;20046;-59
2021/10/20 12:09:43;;;;;;;8.85;4.97;;;;;;;;;;5061203;28;20044;-60
2021/10/20 12:12:11;;;;;;;9.88;5.38;;;;;;;;;;5061672;28;20032;-60
2021/10/20 12:14:42;;;;;;;9.20;4.65;;;;;;;;;;5048762;28;20349;-59
2021/10/20 12:17:08;;;;;;;13.57;5.05;;;;;;;;;;5046198;28;20043;-59
2021/10/20 12:19:35;;;;;;;7.95;3.83;;;;;;;;;;5046709;28;20033;-59
2021/10/20 12:22:03;;;;;;;8.55;4.50;;;;;;;;;;5049313;28;20048;-59
2021/10/20 12:24:36;;;;;;;12.57;4.13;;;;;;;;;;5064217;28;20033;-60
2021/10/20 12:27:03;;;;;;;13.23;4.10;;;;;;;;;;5032208;28;20049;-60
2021/10/20 12:29:37;;;;;;;12.02;3.58;;;;;;;;;;5031244;28;20056;-62
2021/10/20 12:32:06;;;;;;;10.40;3.63;;;;;;;;;;5047641;28;20067;-60
2021/10/20 12:34:34;;;;;;;12.25;4.13;;;;;;;;;;5060360;28;20041;-60
2021/10/20 12:37:00;;;;;;;13.18;3.70;;;;;;;;;;5048291;28;20025;-60
2021/10/20 12:39:26;;;;;;;15.90;3.95;;;;;;;;;;5048029;28;20044;-61
2021/10/20 12:41:51;;;;;;;13.00;3.63;;;;;;;;;;5046365;28;20533;-59
2021/10/20 12:44:17;;;;;;;14.13;4.00;;;;;;;;;;5046520;28;20024;-59
2021/10/20 12:46:45;;;;;;;13.93;4.05;;;;;;;;;;5030627;28;20013;-61
2021/10/20 12:49:11;;;;;;;11.80;3.70;;;;;;;;;;5024666;28;20044;-61
2021/10/20 12:51:40;;;;;;;14.75;4.50;;;;;;;;;;5046601;28;20024;-58
2021/10/20 12:54:33;;;;;;;11.52;4.13;;;;;;;;;;5045657;28;21120;-59
2021/10/20 12:57:01;;;;;;;12.18;4.03;;;;;;;;;;5046052;28;20190;-61
2021/10/20 12:59:29;;;;;;;13.20;3.45;;;;;;;;;;5062327;28;20032;-59
2021/10/20 13:02:34;;;;;;;12.35;3.97;;;;;;;;;;5047038;28;20977;-61
2021/10/20 13:05:00;;;;;;;20.83;3.97;;;;;;;;;;5028590;28;21015;-59
2021/10/20 13:07:25;;;;;;;14.98;4.25;;;;;;;;;;5045831;28;20029;-59
2021/10/20 13:09:51;;;;;;;19.50;3.80;;;;;;;;;;5030635;28;20048;-59
2021/10/20 13:12:19;;;;;;;16.40;3.97;;;;;;;;;;5013613;28;20190;-60
2021/10/20 13:14:47;;;;;;;18.35;4.38;;;;;;;;;;5063768;28;20029;-59
2021/10/20 13:17:15;;;;;;;13.88;3.42;;;;;;;;;;5050218;28;20510;-59
2021/10/20 13:19:40;;;;;;;14.95;3.42;;;;;;;;;;5043436;28;20147;-60
2021/10/20 13:22:06;;;;;;;18.13;3.97;;;;;;;;;;5047207;28;20042;-59
2021/10/20 13:24:32;;;;;;;14.40;4.20;;;;;;;;;;5045401;28;20090;-60
2021/10/20 13:27:02;;;;;;;10.10;3.05;;;;;;;;;;5048117;28;20569;-60
2021/10/20 13:29:27;;;;;;;19.33;3.53;;;;;;;;;;5017208;28;20119;-61
2021/10/20 13:31:53;;;;;;;17.38;3.78;;;;;;;;;;5048463;28;20085;-61
2021/10/20 13:34:21;;;;;;;13.07;3.53;;;;;;;;;;5047268;28;22138;-62
2021/10/20 13:36:47;;;;;;;17.95;4.00;;;;;;;;;;5043917;28;20502;-60
2021/10/20 13:39:13;;;;;;;9.55;3.20;;;;;;;;;;5046100;28;20159;-61
2021/10/20 13:41:39;;;;;;;13.07;4.10;;;;;;;;;;5047080;28;20028;-61
2021/10/20 13:44:06;;;;;;;13.90;3.60;;;;;;;;;;5047358;28;20664;-62
2021/10/20 13:46:32;;;;;;;15.68;4.25;;;;;;;;;;5030506;28;20047;-62
2021/10/20 13:49:05;;;;;;;12.82;3.42;;;;;;;;;;5029304;28;20035;-61
2021/10/20 13:51:42;;;;;;;21.73;3.53;;;;;;;;;;5045849;28;20033;-61
2021/10/20 13:54:07;;;;;;;;;;;;;;;;;;5046392;28;20036;-60
2021/10/20 13:56:33;;;;;;;11.95;3.25;;;;;;;;;;5038127;28;20009;-59
2021/10/20 13:58:59;;;;;;;14.63;3.78;;;;;;;;;;5042613;28;20132;-61
2021/10/20 14:01:25;;;;;;;14.95;4.05;;;;;;;;;;5030020;28;20625;-62
2021/10/20 14:03:53;;;;;;;19.90;3.80;;;;;;;;;;5045306;28;20502;-60
2021/10/20 14:06:21;;;;;;;14.65;3.30;;;;;;;;;;5039256;28;20032;-61
2021/10/20 14:08:49;;;;;;;20.98;3.25;;;;;;;;;;5048919;28;20060;-61
2021/10/20 14:11:18;;;;;;;16.73;3.17;;;;;;;;;;5046764;28;20032;-59
2021/10/20 14:13:43;;;;;;;18.20;3.53;;;;;;;;;;5045208;28;20032;-62
2021/10/20 14:16:09;;;;;;;13.60;3.22;;;;;;;;;;5043935;28;20165;-62
2021/10/20 14:18:35;;;;;;;14.70;3.65;;;;;;;;;;5046914;28;20051;-59
2021/10/20 14:21:00;;;;;;;9.20;2.72;;;;;;;;;;5046176;28;20121;-61
2021/10/20 14:23:26;;;;;;;10.50;2.55;;;;;;;;;;5048016;28;20052;-61
2021/10/20 14:25:52;;;;;;;15.20;3.10;;;;;;;;;;5045980;28;21969;-59
2021/10/20 14:28:19;;;;;;;12.63;3.25;;;;;;;;;;5046381;28;20049;-62
2021/10/20 14:30:47;;;;;;;10.88;2.35;;;;;;;;;;5038898;28;20032;-62
2021/10/20 14:33:16;;;;;;;14.63;2.85;;;;;;;;;;5044440;28;20750;-61
2021/10/20 14:35:41;;;;;;;10.48;3.13;;;;;;;;;;5045773;28;20033;-60
2021/10/20 14:38:07;;;;;;;11.27;2.83;;;;;;;;;;5029476;28;20178;-62
2021/10/20 14:40:33;;;;;;;11.73;2.50;;;;;;;;;;5049670;28;20032;-60
2021/10/20 14:43:02;;;;;;;11.65;2.70;;;;;;;;;;5050030;28;20032;-62
2021/10/20 14:45:30;;;;;;;18.17;3.33;;;;;;;;;;5050511;28;20036;-65
2021/10/20 14:47:59;;;;;;;21.92;3.70;;;;;;;;;;5052117;28;20044;-63
2021/10/20 14:50:28;;;;;;;14.73;3.30;;;;;;;;;;5052208;28;21296;-66
2021/10/20 14:56:32;;;;;;;13.48;2.67;;;;;;;;;;5052110;28;20135;-62
2021/10/20 14:59:07;;;;;;;12.95;2.13;;;;;;;;;;5049147;28;20463;-61
2021/10/20 15:01:57;;;;;;;16.73;2.85;;;;;;;;;;5051518;28;20024;-61
2021/10/20 15:04:23;;;;;;;9.05;2.25;;;;;;;;;;5051481;28;20051;-61
2021/10/20 15:06:48;;;;;;;15.20;2.95;;;;;;;;;;5046336;28;20111;-60
2021/10/20 15:09:25;;;;;;;17.55;2.92;;;;;;;;;;5030823;28;20056;-61
2021/10/20 15:11:50;;;;;;;14.10;2.30;;;;;;;;;;5043210;28;20686;-59